<?xml version="1.0" encoding="utf-8"?>
<gpx xmlns:xsi="http://www.w3.org/2001/XMLSchema-instance" xmlns:xsd="http://www.w3.org/2001/XMLSchema" version="1.1" creator="Shapelink.com" xmlns="http://www.topografix.com/GPX/1/1" xmlns:gpxtpx="http://www.garmin.com/xmlschemas/TrackPointExtension/v1">
  <metadata>
    <name>Løping 2.72 km, 2012-05-14</name>
    <desc></desc>
    <author><name>Mikael Blom</name></author> 
    <time>2012-05-14T19:30:02Z</time>
  </metadata>
  <trk>
    <name>Løping 2.72 km, 2012-05-14</name>
    <trkseg>
      <trkpt lat="59.9554327" lon="17.7153078">
        <ele>46.7612</ele>
        <time>2012-05-14T19:30:02Z</time>
      </trkpt>
      <trkpt lat="59.955437" lon="17.7154666">
        <ele>46.2806</ele>
        <time>2012-05-14T19:30:05Z</time>
      </trkpt>
      <trkpt lat="59.9554314" lon="17.7158428">
        <ele>44.358</ele>
        <time>2012-05-14T19:30:11Z</time>
      </trkpt>
      <trkpt lat="59.9554454" lon="17.7160646">
        <ele>43.3966</ele>
        <time>2012-05-14T19:30:15Z</time>
      </trkpt>
      <trkpt lat="59.9554617" lon="17.7162845">
        <ele>42.4354</ele>
        <time>2012-05-14T19:30:19Z</time>
      </trkpt>
      <trkpt lat="59.9554619" lon="17.7164666">
        <ele>41.474</ele>
        <time>2012-05-14T19:30:24Z</time>
      </trkpt>
      <trkpt lat="59.9554729" lon="17.716665">
        <ele>40.9934</ele>
        <time>2012-05-14T19:30:28Z</time>
      </trkpt>
      <trkpt lat="59.9554687" lon="17.7169318">
        <ele>40.9934</ele>
        <time>2012-05-14T19:30:33Z</time>
      </trkpt>
      <trkpt lat="59.9555213" lon="17.7171534">
        <ele>40.5128</ele>
        <time>2012-05-14T19:30:38Z</time>
      </trkpt>
      <trkpt lat="59.9555904" lon="17.7173022">
        <ele>38.5901</ele>
        <time>2012-05-14T19:30:42Z</time>
      </trkpt>
      <trkpt lat="59.9556788" lon="17.717545">
        <ele>40.9934</ele>
        <time>2012-05-14T19:30:48Z</time>
      </trkpt>
      <trkpt lat="59.9557784" lon="17.7177279">
        <ele>45.3192</ele>
        <time>2012-05-14T19:30:53Z</time>
      </trkpt>
      <trkpt lat="59.9558647" lon="17.717889">
        <ele>46.7612</ele>
        <time>2012-05-14T19:30:58Z</time>
      </trkpt>
      <trkpt lat="59.9559287" lon="17.7179961">
        <ele>49.6453</ele>
        <time>2012-05-14T19:31:02Z</time>
      </trkpt>
      <trkpt lat="59.9560224" lon="17.718234">
        <ele>50.6066</ele>
        <time>2012-05-14T19:31:09Z</time>
      </trkpt>
      <trkpt lat="59.9560959" lon="17.7184915">
        <ele>49.1646</ele>
        <time>2012-05-14T19:31:15Z</time>
      </trkpt>
      <trkpt lat="59.9561349" lon="17.7186893">
        <ele>47.7225</ele>
        <time>2012-05-14T19:31:20Z</time>
      </trkpt>
      <trkpt lat="59.9561839" lon="17.7189583">
        <ele>51.0872</ele>
        <time>2012-05-14T19:31:26Z</time>
      </trkpt>
      <trkpt lat="59.9561917" lon="17.7189911">
        <ele>52.0486</ele>
        <time>2012-05-14T19:31:27Z</time>
      </trkpt>
      <trkpt lat="59.9561726" lon="17.7191411">
        <ele>52.5292</ele>
        <time>2012-05-14T19:31:32Z</time>
      </trkpt>
      <trkpt lat="59.9561493" lon="17.7191927">
        <ele>52.5292</ele>
        <time>2012-05-14T19:31:34Z</time>
      </trkpt>
      <trkpt lat="59.9560841" lon="17.7193265">
        <ele>53.9712</ele>
        <time>2012-05-14T19:31:39Z</time>
      </trkpt>
      <trkpt lat="59.9560354" lon="17.7194271">
        <ele>55.4131</ele>
        <time>2012-05-14T19:31:42Z</time>
      </trkpt>
      <trkpt lat="59.9559728" lon="17.7195025">
        <ele>55.4131</ele>
        <time>2012-05-14T19:31:45Z</time>
      </trkpt>
      <trkpt lat="59.9558629" lon="17.7195663">
        <ele>55.4131</ele>
        <time>2012-05-14T19:31:50Z</time>
      </trkpt>
      <trkpt lat="59.9557519" lon="17.719677">
        <ele>56.3745</ele>
        <time>2012-05-14T19:31:56Z</time>
      </trkpt>
      <trkpt lat="59.9556286" lon="17.7197816">
        <ele>56.8551</ele>
        <time>2012-05-14T19:32:02Z</time>
      </trkpt>
      <trkpt lat="59.9555368" lon="17.7198476">
        <ele>56.8551</ele>
        <time>2012-05-14T19:32:07Z</time>
      </trkpt>
      <trkpt lat="59.9554394" lon="17.7199336">
        <ele>57.3358</ele>
        <time>2012-05-14T19:32:12Z</time>
      </trkpt>
      <trkpt lat="59.9553267" lon="17.7200341">
        <ele>57.8165</ele>
        <time>2012-05-14T19:32:18Z</time>
      </trkpt>
      <trkpt lat="59.9552341" lon="17.7201268">
        <ele>56.8551</ele>
        <time>2012-05-14T19:32:23Z</time>
      </trkpt>
      <trkpt lat="59.9552143" lon="17.7201766">
        <ele>56.3745</ele>
        <time>2012-05-14T19:32:25Z</time>
      </trkpt>
      <trkpt lat="59.9551154" lon="17.7202402">
        <ele>53.9712</ele>
        <time>2012-05-14T19:32:30Z</time>
      </trkpt>
      <trkpt lat="59.9550758" lon="17.7202785">
        <ele>53.0098</ele>
        <time>2012-05-14T19:32:32Z</time>
      </trkpt>
      <trkpt lat="59.9550205" lon="17.7203497">
        <ele>52.0486</ele>
        <time>2012-05-14T19:32:35Z</time>
      </trkpt>
      <trkpt lat="59.9549174" lon="17.720449">
        <ele>53.0098</ele>
        <time>2012-05-14T19:32:40Z</time>
      </trkpt>
      <trkpt lat="59.9548738" lon="17.7205153">
        <ele>53.0098</ele>
        <time>2012-05-14T19:32:42Z</time>
      </trkpt>
      <trkpt lat="59.9547995" lon="17.720722">
        <ele>54.9324</ele>
        <time>2012-05-14T19:32:47Z</time>
      </trkpt>
      <trkpt lat="59.9548124" lon="17.7209378">
        <ele>56.8551</ele>
        <time>2012-05-14T19:32:51Z</time>
      </trkpt>
      <trkpt lat="59.9548463" lon="17.7211191">
        <ele>58.7777</ele>
        <time>2012-05-14T19:32:55Z</time>
      </trkpt>
      <trkpt lat="59.9549154" lon="17.7212409">
        <ele>58.2971</ele>
        <time>2012-05-14T19:33:00Z</time>
      </trkpt>
      <trkpt lat="59.9549893" lon="17.7212949">
        <ele>56.3745</ele>
        <time>2012-05-14T19:33:04Z</time>
      </trkpt>
      <trkpt lat="59.9550822" lon="17.7213327">
        <ele>53.9712</ele>
        <time>2012-05-14T19:33:09Z</time>
      </trkpt>
      <trkpt lat="59.9551924" lon="17.7213242">
        <ele>53.4905</ele>
        <time>2012-05-14T19:33:14Z</time>
      </trkpt>
      <trkpt lat="59.9553055" lon="17.7213457">
        <ele>53.4905</ele>
        <time>2012-05-14T19:33:19Z</time>
      </trkpt>
      <trkpt lat="59.9554162" lon="17.7213445">
        <ele>53.0098</ele>
        <time>2012-05-14T19:33:24Z</time>
      </trkpt>
      <trkpt lat="59.9555408" lon="17.7213668">
        <ele>52.0486</ele>
        <time>2012-05-14T19:33:29Z</time>
      </trkpt>
      <trkpt lat="59.9556623" lon="17.7213616">
        <ele>50.126</ele>
        <time>2012-05-14T19:33:34Z</time>
      </trkpt>
      <trkpt lat="59.9557649" lon="17.721345">
        <ele>47.2418</ele>
        <time>2012-05-14T19:33:39Z</time>
      </trkpt>
      <trkpt lat="59.9558285" lon="17.7213239">
        <ele>46.2806</ele>
        <time>2012-05-14T19:33:42Z</time>
      </trkpt>
      <trkpt lat="59.9559027" lon="17.7213872">
        <ele>44.8386</ele>
        <time>2012-05-14T19:33:46Z</time>
      </trkpt>
      <trkpt lat="59.955998" lon="17.7216218">
        <ele>48.684</ele>
        <time>2012-05-14T19:33:52Z</time>
      </trkpt>
      <trkpt lat="59.9560255" lon="17.7218678">
        <ele>51.5679</ele>
        <time>2012-05-14T19:33:57Z</time>
      </trkpt>
      <trkpt lat="59.9560064" lon="17.7219599">
        <ele>52.5292</ele>
        <time>2012-05-14T19:33:59Z</time>
      </trkpt>
      <trkpt lat="59.9559882" lon="17.7221873">
        <ele>54.4518</ele>
        <time>2012-05-14T19:34:04Z</time>
      </trkpt>
      <trkpt lat="59.9560053" lon="17.7224014">
        <ele>55.4131</ele>
        <time>2012-05-14T19:34:09Z</time>
      </trkpt>
      <trkpt lat="59.9560144" lon="17.7224351">
        <ele>55.4131</ele>
        <time>2012-05-14T19:34:10Z</time>
      </trkpt>
      <trkpt lat="59.9560367" lon="17.7225889">
        <ele>53.9712</ele>
        <time>2012-05-14T19:34:14Z</time>
      </trkpt>
      <trkpt lat="59.9560578" lon="17.7228303">
        <ele>50.6066</ele>
        <time>2012-05-14T19:34:19Z</time>
      </trkpt>
      <trkpt lat="59.9560587" lon="17.7230881">
        <ele>49.6453</ele>
        <time>2012-05-14T19:34:24Z</time>
      </trkpt>
      <trkpt lat="59.9560129" lon="17.7233183">
        <ele>47.2418</ele>
        <time>2012-05-14T19:34:29Z</time>
      </trkpt>
      <trkpt lat="59.9559997" lon="17.7233538">
        <ele>47.7225</ele>
        <time>2012-05-14T19:34:30Z</time>
      </trkpt>
      <trkpt lat="59.9559695" lon="17.723483">
        <ele>47.2418</ele>
        <time>2012-05-14T19:34:34Z</time>
      </trkpt>
      <trkpt lat="59.9559199" lon="17.7236421">
        <ele>48.2034</ele>
        <time>2012-05-14T19:34:38Z</time>
      </trkpt>
      <trkpt lat="59.955823" lon="17.7236998">
        <ele>48.2034</ele>
        <time>2012-05-14T19:34:43Z</time>
      </trkpt>
      <trkpt lat="59.9557314" lon="17.723585">
        <ele>49.1646</ele>
        <time>2012-05-14T19:34:47Z</time>
      </trkpt>
      <trkpt lat="59.9556474" lon="17.7235001">
        <ele>48.684</ele>
        <time>2012-05-14T19:34:51Z</time>
      </trkpt>
      <trkpt lat="59.9556018" lon="17.7234715">
        <ele>49.6453</ele>
        <time>2012-05-14T19:34:53Z</time>
      </trkpt>
      <trkpt lat="59.9554903" lon="17.7234271">
        <ele>50.126</ele>
        <time>2012-05-14T19:34:58Z</time>
      </trkpt>
      <trkpt lat="59.9553687" lon="17.7234367">
        <ele>49.6453</ele>
        <time>2012-05-14T19:35:03Z</time>
      </trkpt>
      <trkpt lat="59.9552811" lon="17.7234943">
        <ele>48.684</ele>
        <time>2012-05-14T19:35:08Z</time>
      </trkpt>
      <trkpt lat="59.9552362" lon="17.7235432">
        <ele>50.6066</ele>
        <time>2012-05-14T19:35:10Z</time>
      </trkpt>
      <trkpt lat="59.9550976" lon="17.7236871">
        <ele>53.4905</ele>
        <time>2012-05-14T19:35:17Z</time>
      </trkpt>
      <trkpt lat="59.9549947" lon="17.7236959">
        <ele>52.5292</ele>
        <time>2012-05-14T19:35:21Z</time>
      </trkpt>
      <trkpt lat="59.9548197" lon="17.7235966">
        <ele>51.5679</ele>
        <time>2012-05-14T19:35:28Z</time>
      </trkpt>
      <trkpt lat="59.9547201" lon="17.7235312">
        <ele>52.0486</ele>
        <time>2012-05-14T19:35:32Z</time>
      </trkpt>
      <trkpt lat="59.9546336" lon="17.7234602">
        <ele>52.0486</ele>
        <time>2012-05-14T19:35:36Z</time>
      </trkpt>
      <trkpt lat="59.9545221" lon="17.7233764">
        <ele>52.0486</ele>
        <time>2012-05-14T19:35:41Z</time>
      </trkpt>
      <trkpt lat="59.9544751" lon="17.7233631">
        <ele>52.0486</ele>
        <time>2012-05-14T19:35:43Z</time>
      </trkpt>
      <trkpt lat="59.9544327" lon="17.7233349">
        <ele>52.0486</ele>
        <time>2012-05-14T19:35:46Z</time>
      </trkpt>
      <trkpt lat="59.9543389" lon="17.7232649">
        <ele>51.0872</ele>
        <time>2012-05-14T19:35:52Z</time>
      </trkpt>
      <trkpt lat="59.954245" lon="17.723239">
        <ele>51.0872</ele>
        <time>2012-05-14T19:35:57Z</time>
      </trkpt>
      <trkpt lat="59.9541652" lon="17.7232654">
        <ele>50.6066</ele>
        <time>2012-05-14T19:36:00Z</time>
      </trkpt>
      <trkpt lat="59.9540404" lon="17.7234092">
        <ele>50.126</ele>
        <time>2012-05-14T19:36:06Z</time>
      </trkpt>
      <trkpt lat="59.9539074" lon="17.7235483">
        <ele>53.0098</ele>
        <time>2012-05-14T19:36:11Z</time>
      </trkpt>
      <trkpt lat="59.9537808" lon="17.7237679">
        <ele>61.181</ele>
        <time>2012-05-14T19:36:17Z</time>
      </trkpt>
      <trkpt lat="59.9537701" lon="17.7237943">
        <ele>61.181</ele>
        <time>2012-05-14T19:36:18Z</time>
      </trkpt>
      <trkpt lat="59.9537415" lon="17.7238397">
        <ele>60.2197</ele>
        <time>2012-05-14T19:36:21Z</time>
      </trkpt>
      <trkpt lat="59.9536405" lon="17.7239723">
        <ele>57.8165</ele>
        <time>2012-05-14T19:36:26Z</time>
      </trkpt>
      <trkpt lat="59.9535997" lon="17.72403">
        <ele>56.3745</ele>
        <time>2012-05-14T19:36:28Z</time>
      </trkpt>
      <trkpt lat="59.9534674" lon="17.724192">
        <ele>52.5292</ele>
        <time>2012-05-14T19:36:34Z</time>
      </trkpt>
      <trkpt lat="59.9533799" lon="17.7243309">
        <ele>48.684</ele>
        <time>2012-05-14T19:36:39Z</time>
      </trkpt>
      <trkpt lat="59.9533381" lon="17.7243862">
        <ele>49.1646</ele>
        <time>2012-05-14T19:36:41Z</time>
      </trkpt>
      <trkpt lat="59.9532167" lon="17.7246302">
        <ele>47.7225</ele>
        <time>2012-05-14T19:36:48Z</time>
      </trkpt>
      <trkpt lat="59.953204" lon="17.7246613">
        <ele>46.7612</ele>
        <time>2012-05-14T19:36:49Z</time>
      </trkpt>
      <trkpt lat="59.9531407" lon="17.7247541">
        <ele>45.3192</ele>
        <time>2012-05-14T19:36:53Z</time>
      </trkpt>
      <trkpt lat="59.9530072" lon="17.7249408">
        <ele>46.7612</ele>
        <time>2012-05-14T19:37:00Z</time>
      </trkpt>
      <trkpt lat="59.9529528" lon="17.7250366">
        <ele>49.1646</ele>
        <time>2012-05-14T19:37:03Z</time>
      </trkpt>
      <trkpt lat="59.9529" lon="17.7251577">
        <ele>51.0872</ele>
        <time>2012-05-14T19:37:06Z</time>
      </trkpt>
      <trkpt lat="59.9528009" lon="17.7253236">
        <ele>53.4905</ele>
        <time>2012-05-14T19:37:11Z</time>
      </trkpt>
      <trkpt lat="59.9526658" lon="17.7256109">
        <ele>54.4518</ele>
        <time>2012-05-14T19:37:18Z</time>
      </trkpt>
      <trkpt lat="59.952592" lon="17.7257561">
        <ele>54.4518</ele>
        <time>2012-05-14T19:37:22Z</time>
      </trkpt>
      <trkpt lat="59.9525011" lon="17.7259311">
        <ele>53.4905</ele>
        <time>2012-05-14T19:37:27Z</time>
      </trkpt>
      <trkpt lat="59.9524281" lon="17.7260711">
        <ele>51.5679</ele>
        <time>2012-05-14T19:37:32Z</time>
      </trkpt>
      <trkpt lat="59.9523171" lon="17.7262604">
        <ele>50.126</ele>
        <time>2012-05-14T19:37:38Z</time>
      </trkpt>
      <trkpt lat="59.9522881" lon="17.7263179">
        <ele>50.126</ele>
        <time>2012-05-14T19:37:40Z</time>
      </trkpt>
      <trkpt lat="59.9522416" lon="17.7264419">
        <ele>51.0872</ele>
        <time>2012-05-14T19:37:44Z</time>
      </trkpt>
      <trkpt lat="59.952171" lon="17.7266302">
        <ele>51.0872</ele>
        <time>2012-05-14T19:37:49Z</time>
      </trkpt>
      <trkpt lat="59.9521082" lon="17.7268556">
        <ele>50.6066</ele>
        <time>2012-05-14T19:37:54Z</time>
      </trkpt>
      <trkpt lat="59.9521011" lon="17.7268935">
        <ele>51.0872</ele>
        <time>2012-05-14T19:37:55Z</time>
      </trkpt>
      <trkpt lat="59.9520851" lon="17.7270817">
        <ele>53.0098</ele>
        <time>2012-05-14T19:37:59Z</time>
      </trkpt>
      <trkpt lat="59.9520577" lon="17.7272853">
        <ele>55.8938</ele>
        <time>2012-05-14T19:38:04Z</time>
      </trkpt>
      <trkpt lat="59.9520255" lon="17.7275618">
        <ele>57.3358</ele>
        <time>2012-05-14T19:38:09Z</time>
      </trkpt>
      <trkpt lat="59.9520214" lon="17.7276192">
        <ele>57.3358</ele>
        <time>2012-05-14T19:38:10Z</time>
      </trkpt>
      <trkpt lat="59.9519648" lon="17.7278569">
        <ele>56.8551</ele>
        <time>2012-05-14T19:38:15Z</time>
      </trkpt>
      <trkpt lat="59.9519059" lon="17.7279688">
        <ele>54.9324</ele>
        <time>2012-05-14T19:38:18Z</time>
      </trkpt>
      <trkpt lat="59.9518787" lon="17.7279774">
        <ele>54.9324</ele>
        <time>2012-05-14T19:38:19Z</time>
      </trkpt>
      <trkpt lat="59.9518136" lon="17.7279844">
        <ele>53.4905</ele>
        <time>2012-05-14T19:38:21Z</time>
      </trkpt>
      <trkpt lat="59.9517095" lon="17.7279561">
        <ele>51.5679</ele>
        <time>2012-05-14T19:38:26Z</time>
      </trkpt>
      <trkpt lat="59.9516564" lon="17.7279268">
        <ele>52.0486</ele>
        <time>2012-05-14T19:38:28Z</time>
      </trkpt>
      <trkpt lat="59.9515586" lon="17.7278193">
        <ele>51.5679</ele>
        <time>2012-05-14T19:38:32Z</time>
      </trkpt>
      <trkpt lat="59.9515126" lon="17.7277709">
        <ele>51.5679</ele>
        <time>2012-05-14T19:38:34Z</time>
      </trkpt>
      <trkpt lat="59.9514453" lon="17.7275899">
        <ele>49.6453</ele>
        <time>2012-05-14T19:38:38Z</time>
      </trkpt>
      <trkpt lat="59.9514171" lon="17.7273308">
        <ele>48.2034</ele>
        <time>2012-05-14T19:38:43Z</time>
      </trkpt>
      <trkpt lat="59.951407" lon="17.7271556">
        <ele>48.2034</ele>
        <time>2012-05-14T19:38:47Z</time>
      </trkpt>
      <trkpt lat="59.9514075" lon="17.7269906">
        <ele>47.2418</ele>
        <time>2012-05-14T19:38:51Z</time>
      </trkpt>
      <trkpt lat="59.951414" lon="17.7266733">
        <ele>48.2034</ele>
        <time>2012-05-14T19:38:57Z</time>
      </trkpt>
      <trkpt lat="59.9514603" lon="17.7265515">
        <ele>47.7225</ele>
        <time>2012-05-14T19:39:00Z</time>
      </trkpt>
      <trkpt lat="59.9514757" lon="17.7265145">
        <ele>48.2034</ele>
        <time>2012-05-14T19:39:01Z</time>
      </trkpt>
      <trkpt lat="59.9515659" lon="17.7262766">
        <ele>46.2806</ele>
        <time>2012-05-14T19:39:07Z</time>
      </trkpt>
      <trkpt lat="59.9516613" lon="17.7260724">
        <ele>46.2806</ele>
        <time>2012-05-14T19:39:13Z</time>
      </trkpt>
      <trkpt lat="59.9517347" lon="17.7259392">
        <ele>46.2806</ele>
        <time>2012-05-14T19:39:17Z</time>
      </trkpt>
      <trkpt lat="59.9518571" lon="17.7258002">
        <ele>45.7999</ele>
        <time>2012-05-14T19:39:23Z</time>
      </trkpt>
      <trkpt lat="59.9519565" lon="17.7256311">
        <ele>44.8386</ele>
        <time>2012-05-14T19:39:28Z</time>
      </trkpt>
      <trkpt lat="59.9520322" lon="17.7254368">
        <ele>44.358</ele>
        <time>2012-05-14T19:39:33Z</time>
      </trkpt>
      <trkpt lat="59.9520917" lon="17.7252704">
        <ele>45.3192</ele>
        <time>2012-05-14T19:39:37Z</time>
      </trkpt>
      <trkpt lat="59.952105" lon="17.7252303">
        <ele>45.7999</ele>
        <time>2012-05-14T19:39:38Z</time>
      </trkpt>
      <trkpt lat="59.9521855" lon="17.725054">
        <ele>47.7225</ele>
        <time>2012-05-14T19:39:43Z</time>
      </trkpt>
      <trkpt lat="59.9522839" lon="17.72489">
        <ele>48.2034</ele>
        <time>2012-05-14T19:39:48Z</time>
      </trkpt>
      <trkpt lat="59.9523595" lon="17.7247732">
        <ele>47.2418</ele>
        <time>2012-05-14T19:39:52Z</time>
      </trkpt>
      <trkpt lat="59.9525034" lon="17.7245746">
        <ele>44.8386</ele>
        <time>2012-05-14T19:39:59Z</time>
      </trkpt>
      <trkpt lat="59.9525164" lon="17.7245285">
        <ele>45.3192</ele>
        <time>2012-05-14T19:40:00Z</time>
      </trkpt>
      <trkpt lat="59.9525926" lon="17.7243591">
        <ele>45.7999</ele>
        <time>2012-05-14T19:40:05Z</time>
      </trkpt>
      <trkpt lat="59.952658" lon="17.7241531">
        <ele>46.7612</ele>
        <time>2012-05-14T19:40:10Z</time>
      </trkpt>
      <trkpt lat="59.9527124" lon="17.7239535">
        <ele>45.7999</ele>
        <time>2012-05-14T19:40:15Z</time>
      </trkpt>
      <trkpt lat="59.9527096" lon="17.723734">
        <ele>44.358</ele>
        <time>2012-05-14T19:40:20Z</time>
      </trkpt>
      <trkpt lat="59.9526132" lon="17.7234633">
        <ele>43.8773</ele>
        <time>2012-05-14T19:40:27Z</time>
      </trkpt>
      <trkpt lat="59.9525724" lon="17.7233472">
        <ele>44.358</ele>
        <time>2012-05-14T19:40:30Z</time>
      </trkpt>
      <trkpt lat="59.9525213" lon="17.7232333">
        <ele>45.7999</ele>
        <time>2012-05-14T19:40:33Z</time>
      </trkpt>
      <trkpt lat="59.9524835" lon="17.7229804">
        <ele>46.2806</ele>
        <time>2012-05-14T19:40:38Z</time>
      </trkpt>
      <trkpt lat="59.9524452" lon="17.7227702">
        <ele>47.2418</ele>
        <time>2012-05-14T19:40:43Z</time>
      </trkpt>
      <trkpt lat="59.9524451" lon="17.7225334">
        <ele>47.2418</ele>
        <time>2012-05-14T19:40:48Z</time>
      </trkpt>
      <trkpt lat="59.9524979" lon="17.722332">
        <ele>47.7225</ele>
        <time>2012-05-14T19:40:53Z</time>
      </trkpt>
      <trkpt lat="59.9525347" lon="17.7220682">
        <ele>49.6453</ele>
        <time>2012-05-14T19:40:59Z</time>
      </trkpt>
      <trkpt lat="59.9525399" lon="17.721922">
        <ele>49.6453</ele>
        <time>2012-05-14T19:41:02Z</time>
      </trkpt>
      <trkpt lat="59.9524917" lon="17.7216601">
        <ele>53.4905</ele>
        <time>2012-05-14T19:41:08Z</time>
      </trkpt>
      <trkpt lat="59.9524734" lon="17.7213944">
        <ele>53.4905</ele>
        <time>2012-05-14T19:41:13Z</time>
      </trkpt>
      <trkpt lat="59.9524751" lon="17.7211674">
        <ele>52.5292</ele>
        <time>2012-05-14T19:41:18Z</time>
      </trkpt>
      <trkpt lat="59.9524747" lon="17.7208291">
        <ele>50.6066</ele>
        <time>2012-05-14T19:41:25Z</time>
      </trkpt>
      <trkpt lat="59.9524735" lon="17.7206051">
        <ele>48.684</ele>
        <time>2012-05-14T19:41:30Z</time>
      </trkpt>
      <trkpt lat="59.9524921" lon="17.7203164">
        <ele>47.2418</ele>
        <time>2012-05-14T19:41:36Z</time>
      </trkpt>
      <trkpt lat="59.9524913" lon="17.7201149">
        <ele>47.7225</ele>
        <time>2012-05-14T19:41:40Z</time>
      </trkpt>
      <trkpt lat="59.9524435" lon="17.7198683">
        <ele>47.7225</ele>
        <time>2012-05-14T19:41:46Z</time>
      </trkpt>
      <trkpt lat="59.952374" lon="17.7196585">
        <ele>47.2418</ele>
        <time>2012-05-14T19:41:51Z</time>
      </trkpt>
      <trkpt lat="59.9523544" lon="17.7196179">
        <ele>46.7612</ele>
        <time>2012-05-14T19:41:52Z</time>
      </trkpt>
      <trkpt lat="59.9523357" lon="17.7194309">
        <ele>46.2806</ele>
        <time>2012-05-14T19:41:56Z</time>
      </trkpt>
      <trkpt lat="59.9523891" lon="17.7191126">
        <ele>47.2418</ele>
        <time>2012-05-14T19:42:02Z</time>
      </trkpt>
      <trkpt lat="59.9524156" lon="17.7189425">
        <ele>46.2806</ele>
        <time>2012-05-14T19:42:06Z</time>
      </trkpt>
      <trkpt lat="59.9524303" lon="17.7188176">
        <ele>47.2418</ele>
        <time>2012-05-14T19:42:09Z</time>
      </trkpt>
      <trkpt lat="59.952476" lon="17.7186151">
        <ele>48.2034</ele>
        <time>2012-05-14T19:42:13Z</time>
      </trkpt>
      <trkpt lat="59.9525088" lon="17.7184195">
        <ele>48.2034</ele>
        <time>2012-05-14T19:42:17Z</time>
      </trkpt>
      <trkpt lat="59.9525536" lon="17.7181975">
        <ele>49.1646</ele>
        <time>2012-05-14T19:42:22Z</time>
      </trkpt>
      <trkpt lat="59.9526184" lon="17.717975">
        <ele>48.684</ele>
        <time>2012-05-14T19:42:27Z</time>
      </trkpt>
      <trkpt lat="59.9526937" lon="17.7177605">
        <ele>47.2418</ele>
        <time>2012-05-14T19:42:32Z</time>
      </trkpt>
      <trkpt lat="59.9527489" lon="17.7175953">
        <ele>47.7225</ele>
        <time>2012-05-14T19:42:36Z</time>
      </trkpt>
      <trkpt lat="59.952828" lon="17.7174238">
        <ele>46.2806</ele>
        <time>2012-05-14T19:42:41Z</time>
      </trkpt>
      <trkpt lat="59.9528803" lon="17.7171586">
        <ele>44.8386</ele>
        <time>2012-05-14T19:42:47Z</time>
      </trkpt>
      <trkpt lat="59.9529211" lon="17.716942">
        <ele>44.8386</ele>
        <time>2012-05-14T19:42:52Z</time>
      </trkpt>
      <trkpt lat="59.952931" lon="17.7167125">
        <ele>47.2418</ele>
        <time>2012-05-14T19:42:57Z</time>
      </trkpt>
      <trkpt lat="59.9529408" lon="17.7165706">
        <ele>48.684</ele>
        <time>2012-05-14T19:43:00Z</time>
      </trkpt>
      <trkpt lat="59.9529729" lon="17.7163473">
        <ele>50.6066</ele>
        <time>2012-05-14T19:43:04Z</time>
      </trkpt>
      <trkpt lat="59.9530009" lon="17.7162049">
        <ele>52.0486</ele>
        <time>2012-05-14T19:43:07Z</time>
      </trkpt>
      <trkpt lat="59.953061" lon="17.7159704">
        <ele>53.0098</ele>
        <time>2012-05-14T19:43:12Z</time>
      </trkpt>
      <trkpt lat="59.953134" lon="17.715756">
        <ele>52.5292</ele>
        <time>2012-05-14T19:43:17Z</time>
      </trkpt>
      <trkpt lat="59.9532091" lon="17.7156346">
        <ele>51.5679</ele>
        <time>2012-05-14T19:43:21Z</time>
      </trkpt>
      <trkpt lat="59.95332" lon="17.7154916">
        <ele>49.6453</ele>
        <time>2012-05-14T19:43:26Z</time>
      </trkpt>
      <trkpt lat="59.9534192" lon="17.7153575">
        <ele>47.7225</ele>
        <time>2012-05-14T19:43:31Z</time>
      </trkpt>
      <trkpt lat="59.953511" lon="17.7151948">
        <ele>45.7999</ele>
        <time>2012-05-14T19:43:36Z</time>
      </trkpt>
      <trkpt lat="59.9535805" lon="17.7151131">
        <ele>44.8386</ele>
        <time>2012-05-14T19:43:40Z</time>
      </trkpt>
      <trkpt lat="59.9536347" lon="17.7150874">
        <ele>43.8773</ele>
        <time>2012-05-14T19:43:43Z</time>
      </trkpt>
      <trkpt lat="59.9536958" lon="17.7150121">
        <ele>42.916</ele>
        <time>2012-05-14T19:43:46Z</time>
      </trkpt>
      <trkpt lat="59.9538271" lon="17.7149448">
        <ele>43.3966</ele>
        <time>2012-05-14T19:43:51Z</time>
      </trkpt>
      <trkpt lat="59.9539471" lon="17.7148871">
        <ele>43.8773</ele>
        <time>2012-05-14T19:43:56Z</time>
      </trkpt>
      <trkpt lat="59.954051" lon="17.7148996">
        <ele>44.8386</ele>
        <time>2012-05-14T19:44:00Z</time>
      </trkpt>
      <trkpt lat="59.9542182" lon="17.7148151">
        <ele>45.3192</ele>
        <time>2012-05-14T19:44:07Z</time>
      </trkpt>
      <trkpt lat="59.9542369" lon="17.7147933">
        <ele>45.3192</ele>
        <time>2012-05-14T19:44:08Z</time>
      </trkpt>
      <trkpt lat="59.9544129" lon="17.7147524">
        <ele>45.3192</ele>
        <time>2012-05-14T19:44:15Z</time>
      </trkpt>
      <trkpt lat="59.9546124" lon="17.7147312">
        <ele>45.7999</ele>
        <time>2012-05-14T19:44:22Z</time>
      </trkpt>
      <trkpt lat="59.9547637" lon="17.7147083">
        <ele>44.358</ele>
        <time>2012-05-14T19:44:28Z</time>
      </trkpt>
      <trkpt lat="59.954888" lon="17.7146181">
        <ele>43.3966</ele>
        <time>2012-05-14T19:44:33Z</time>
      </trkpt>
      <trkpt lat="59.9549751" lon="17.7144645">
        <ele>44.358</ele>
        <time>2012-05-14T19:44:37Z</time>
      </trkpt>
      <trkpt lat="59.9550588" lon="17.7143052">
        <ele>46.2806</ele>
        <time>2012-05-14T19:44:41Z</time>
      </trkpt>
      <trkpt lat="59.9551216" lon="17.7141894">
        <ele>46.7612</ele>
        <time>2012-05-14T19:44:45Z</time>
      </trkpt>
      <trkpt lat="59.9552008" lon="17.7140778">
        <ele>46.7612</ele>
        <time>2012-05-14T19:44:49Z</time>
      </trkpt>
      <trkpt lat="59.9552563" lon="17.7142132">
        <ele>45.3192</ele>
        <time>2012-05-14T19:44:52Z</time>
      </trkpt>
      <trkpt lat="59.9553014" lon="17.71453">
        <ele>45.3192</ele>
        <time>2012-05-14T19:44:58Z</time>
      </trkpt>
      <trkpt lat="59.9553439" lon="17.7147792">
        <ele>45.7999</ele>
        <time>2012-05-14T19:45:03Z</time>
      </trkpt>
      <trkpt lat="59.955409" lon="17.7150307">
        <ele>49.6453</ele>
        <time>2012-05-14T19:45:08Z</time>
      </trkpt>
      <trkpt lat="59.9554446" lon="17.7151477">
        <ele>50.6066</ele>
        <time>2012-05-14T19:46:06Z</time>
      </trkpt>
      <trkpt lat="59.9554427" lon="17.7151595">
        <ele>50.126</ele>
        <time>2012-05-14T19:46:07Z</time>
      </trkpt>
      <trkpt lat="59.9554389" lon="17.7152011">
        <ele>49.6453</ele>
        <time>2012-05-14T19:46:08Z</time>
      </trkpt>
      <trkpt lat="59.9554325" lon="17.7154326">
        <ele>48.684</ele>
        <time>2012-05-14T19:46:13Z</time>
      </trkpt>
      <trkpt lat="59.9554515" lon="17.715586">
        <ele>48.2034</ele>
        <time>2012-05-14T19:46:16Z</time>
      </trkpt>
      <trkpt lat="59.9554749" lon="17.715759">
        <ele>47.2418</ele>
        <time>2012-05-14T19:46:19Z</time>
      </trkpt>
      <trkpt lat="59.9555117" lon="17.7159522">
        <ele>45.7999</ele>
        <time>2012-05-14T19:46:23Z</time>
      </trkpt>
      <trkpt lat="59.9555215" lon="17.7160664">
        <ele>46.2806</ele>
        <time>2012-05-14T19:46:26Z</time>
      </trkpt>
      <trkpt lat="59.955542" lon="17.7163162">
        <ele>45.3192</ele>
        <time>2012-05-14T19:46:31Z</time>
      </trkpt>
      <trkpt lat="59.9555427" lon="17.7165648">
        <ele>46.2806</ele>
        <time>2012-05-14T19:46:36Z</time>
      </trkpt>
      <trkpt lat="59.9555588" lon="17.7167362">
        <ele>45.7999</ele>
        <time>2012-05-14T19:46:40Z</time>
      </trkpt>
      <trkpt lat="59.9555869" lon="17.7169437">
        <ele>45.3192</ele>
        <time>2012-05-14T19:46:45Z</time>
      </trkpt>
      <trkpt lat="59.9556278" lon="17.7171156">
        <ele>45.7999</ele>
        <time>2012-05-14T19:46:49Z</time>
      </trkpt>
      <trkpt lat="59.9557138" lon="17.7173056">
        <ele>48.2034</ele>
        <time>2012-05-14T19:46:53Z</time>
      </trkpt>
      <trkpt lat="59.9557748" lon="17.7174684">
        <ele>50.6066</ele>
        <time>2012-05-14T19:46:57Z</time>
      </trkpt>
      <trkpt lat="59.9557857" lon="17.7175109">
        <ele>51.0872</ele>
        <time>2012-05-14T19:46:58Z</time>
      </trkpt>
      <trkpt lat="59.9558119" lon="17.7175626">
        <ele>56.3745</ele>
        <time>2012-05-14T19:47:14Z</time>
      </trkpt>
      <trkpt lat="59.9558033" lon="17.7175503">
        <ele>56.3745</ele>
        <time>2012-05-14T19:47:15Z</time>
      </trkpt>
      <trkpt lat="59.9557886" lon="17.7175346">
        <ele>56.3745</ele>
        <time>2012-05-14T19:47:16Z</time>
      </trkpt>
      <trkpt lat="59.9557024" lon="17.7173668">
        <ele>56.3745</ele>
        <time>2012-05-14T19:47:19Z</time>
      </trkpt>
      <trkpt lat="59.9556867" lon="17.7173265">
        <ele>56.3745</ele>
        <time>2012-05-14T19:47:20Z</time>
      </trkpt>
      <trkpt lat="59.9556002" lon="17.717146">
        <ele>56.3745</ele>
        <time>2012-05-14T19:47:24Z</time>
      </trkpt>
      <trkpt lat="59.9555511" lon="17.7169468">
        <ele>56.3745</ele>
        <time>2012-05-14T19:47:28Z</time>
      </trkpt>
      <trkpt lat="59.9555246" lon="17.7167534">
        <ele>55.8938</ele>
        <time>2012-05-14T19:47:32Z</time>
      </trkpt>
      <trkpt lat="59.955508" lon="17.7164593">
        <ele>53.4905</ele>
        <time>2012-05-14T19:47:38Z</time>
      </trkpt>
      <trkpt lat="59.9554899" lon="17.7162776">
        <ele>51.0872</ele>
        <time>2012-05-14T19:47:42Z</time>
      </trkpt>
      <trkpt lat="59.9554448" lon="17.7160315">
        <ele>48.684</ele>
        <time>2012-05-14T19:47:46Z</time>
      </trkpt>
      <trkpt lat="59.955437" lon="17.7157903">
        <ele>44.8386</ele>
        <time>2012-05-14T19:47:50Z</time>
      </trkpt>
      <trkpt lat="59.9554418" lon="17.715478">
        <ele>41.474</ele>
        <time>2012-05-14T19:47:56Z</time>
      </trkpt>
      <trkpt lat="59.955432" lon="17.7152601">
        <ele>39.5513</ele>
        <time>2012-05-14T19:48:00Z</time>
      </trkpt>
      <trkpt lat="59.9554113" lon="17.7151323">
        <ele>37.6287</ele>
        <time>2012-05-14T19:48:03Z</time>
      </trkpt>
    </trkseg>
  </trk>
</gpx>